PWSweather.com
Personal Weather Stations
Station Observations
ALMOSTER
Urb. Mas Carreras, AlmosterES 43393

Urb. Mas CarrerasAlmosterES 43393

Lat: 41.1908333333, Lon: 1.1086111111

Elevation: 836.6

Station Type: Davis Vantage Pro 2

http://www.meteoalmoster.net

Latest ConditionsUpdated 9:30:07 PM GMT+01:01 Wednesday, Apr 24, 2019
Currently Today's Max Today's Min Today's Average
Temperature 54.3°F12.4°C 59.9°F15.5°C 50.7°F10.4°C 55.8°F13.2°C
Dew Point 49.6°F9.8°C 50.9°F10.5°C 37.2°F2.9°C 43.7°F6.5°C
Winds Calm Calm 13.0 mph -20.9 kmh - - 7.0 mph 11.3 kmh
Wind Gusts -- 24.0 mph38.6 kmh - -
Humidity 84% 87% 46% 65%
Pressure 29.87 in1011.5 mb 29.87 in1011.5 mb 29.58 in1001.7 mb -
Precipitation - 0.01 in0.3 mm - -
Hour Temp Dew Point Humidity Winds Wind Gusts Pressure Precip Precip Rate Daily Precip Total
09:30 PM 54.3°F12.4°C 49.6°F9.8°C 84% Calm Calm -- 29.87 in1011.5 mb 0.00 in0.0 mm 0.00 in0.0 mm 0.01 in0.3 mm
09:00 PM 54.3°F12.4°C 49.6°F9.8°C 84% Calm Calm -- 29.86 in1011.2 mb 0.00 in0.0 mm 0.00 in0.0 mm 0.01 in0.3 mm
08:30 PM 54.9°F12.7°C 49.1°F9.5°C 81% 2.0 mph WSW3.2 kmh WSW 8.0 mph12.9 kmh 29.85 in1010.8 mb 0.00 in0.0 mm 0.00 in0.0 mm 0.01 in0.3 mm
08:00 PM 55.2°F12.9°C 48.7°F9.3°C 79% 5.0 mph WSW8.0 kmh WSW 12.0 mph19.3 kmh 29.84 in1010.5 mb 0.00 in0.0 mm 0.00 in0.0 mm 0.01 in0.3 mm
07:30 PM 55.4°F13.0°C 48.0°F8.9°C 76% 8.0 mph SW12.9 kmh SW 16.0 mph25.7 kmh 29.83 in1010.2 mb 0.00 in0.0 mm 0.00 in0.0 mm 0.01 in0.3 mm
07:00 PM 56.1°F13.4°C 47.8°F8.8°C 74% 4.0 mph SW6.4 kmh SW 10.0 mph16.1 kmh 29.84 in1010.5 mb 0.00 in0.0 mm 0.00 in0.0 mm 0.01 in0.3 mm
06:30 PM 56.3°F13.5°C 48.2°F9.0°C 74% 9.0 mph SSW14.5 kmh SSW 20.0 mph32.2 kmh 29.84 in1010.5 mb 0.00 in0.0 mm 0.00 in0.0 mm 0.01 in0.3 mm
06:00 PM 56.8°F13.8°C 48.4°F9.1°C 73% 10.0 mph SSW16.1 kmh SSW 19.0 mph30.6 kmh 29.83 in1010.2 mb 0.00 in0.0 mm 0.00 in0.0 mm 0.01 in0.3 mm
05:30 PM 58.6°F14.8°C 47.7°F8.7°C 67% 8.0 mph SW12.9 kmh SW 18.0 mph29.0 kmh 29.82 in1009.8 mb 0.00 in0.0 mm 0.00 in0.0 mm 0.01 in0.3 mm
05:00 PM 58.8°F14.9°C 45.9°F7.7°C 62% 11.0 mph SW17.7 kmh SW 22.0 mph35.4 kmh 29.82 in1009.8 mb 0.00 in0.0 mm 0.00 in0.0 mm 0.01 in0.3 mm
04:30 PM 58.8°F14.9°C 42.6°F5.9°C 55% 12.0 mph SW19.3 kmh SW 24.0 mph38.6 kmh 29.81 in1009.5 mb 0.00 in0.0 mm 0.00 in0.0 mm 0.01 in0.3 mm
04:00 PM 59.2°F15.1°C 44.4°F6.9°C 58% 11.0 mph SSW17.7 kmh SSW 19.0 mph30.6 kmh 29.82 in1009.8 mb 0.00 in0.0 mm 0.00 in0.0 mm 0.01 in0.3 mm
03:30 PM 58.1°F14.5°C 45.1°F7.3°C 62% 9.0 mph SW14.5 kmh SW 17.0 mph27.4 kmh 29.82 in1009.8 mb 0.00 in0.0 mm 0.00 in0.0 mm 0.01 in0.3 mm
03:00 PM 56.5°F13.6°C 44.4°F6.9°C 64% 11.0 mph SW17.7 kmh SW 18.0 mph29.0 kmh 29.83 in1010.2 mb 0.00 in0.0 mm 0.00 in0.0 mm 0.01 in0.3 mm
02:30 PM 56.7°F13.7°C 41.5°F5.3°C 57% 8.0 mph SSW12.9 kmh SSW 14.0 mph22.5 kmh 29.83 in1010.2 mb 0.00 in0.0 mm 0.00 in0.0 mm 0.01 in0.3 mm
02:00 PM 56.5°F13.6°C 42.8°F6.0°C 60% 8.0 mph S12.9 kmh S 14.0 mph22.5 kmh 29.82 in1009.8 mb 0.00 in0.0 mm 0.00 in0.0 mm 0.01 in0.3 mm
01:30 PM 57.9°F14.4°C 42.8°F6.0°C 57% 8.0 mph SSW12.9 kmh SSW 15.0 mph24.1 kmh 29.81 in1009.5 mb 0.00 in0.0 mm 0.00 in0.0 mm 0.01 in0.3 mm
01:00 PM 59.7°F15.4°C 40.5°F4.7°C 49% 6.0 mph SSW9.7 kmh SSW 16.0 mph25.7 kmh 29.80 in1009.1 mb 0.00 in0.0 mm 0.00 in0.0 mm 0.01 in0.3 mm
12:30 PM 58.5°F14.7°C 41.9°F5.5°C 54% 8.0 mph SW12.9 kmh SW 14.0 mph22.5 kmh 29.80 in1009.1 mb 0.00 in0.0 mm 0.00 in0.0 mm 0.01 in0.3 mm
12:00 PM 58.1°F14.5°C 42.4°F5.8°C 56% 9.0 mph S14.5 kmh S 18.0 mph29.0 kmh 29.80 in1009.1 mb 0.00 in0.0 mm 0.00 in0.0 mm 0.01 in0.3 mm
11:30 AM 59.9°F15.5°C 44.2°F6.8°C 56% 9.0 mph S14.5 kmh S 18.0 mph29.0 kmh 29.79 in1008.8 mb 0.00 in0.0 mm 0.00 in0.0 mm 0.01 in0.3 mm
11:00 AM 59.5°F15.3°C 40.5°F4.7°C 49% 9.0 mph SSW14.5 kmh SSW 17.0 mph27.4 kmh 29.77 in1008.1 mb 0.00 in0.0 mm 0.00 in0.0 mm 0.01 in0.3 mm
10:30 AM 58.8°F14.9°C 38.7°F3.7°C 47% 5.0 mph SW8.0 kmh SW 10.0 mph16.1 kmh 29.77 in1008.1 mb 0.00 in0.0 mm 0.00 in0.0 mm 0.01 in0.3 mm
10:00 AM 58.8°F14.9°C 38.7°F3.7°C 47% 5.0 mph NW8.0 kmh NW 13.0 mph20.9 kmh 29.75 in1007.5 mb 0.00 in0.0 mm 0.00 in0.0 mm 0.01 in0.3 mm
09:30 AM 57.7°F14.3°C 37.2°F2.9°C 46% 7.0 mph WNW11.3 kmh WNW 13.0 mph20.9 kmh 29.75 in1007.5 mb 0.00 in0.0 mm 0.00 in0.0 mm 0.01 in0.3 mm
09:00 AM 57.2°F14.0°C 38.1°F3.4°C 49% 8.0 mph W12.9 kmh W 14.0 mph22.5 kmh 29.74 in1007.1 mb 0.00 in0.0 mm 0.00 in0.0 mm 0.01 in0.3 mm
08:30 AM 56.1°F13.4°C 38.3°F3.5°C 51% 11.0 mph WNW17.7 kmh WNW 17.0 mph27.4 kmh 29.73 in1006.8 mb 0.00 in0.0 mm 0.00 in0.0 mm 0.01 in0.3 mm
08:00 AM 55.4°F13.0°C 39.0°F3.9°C 54% 8.0 mph WNW12.9 kmh WNW 15.0 mph24.1 kmh 29.70 in1005.8 mb 0.00 in0.0 mm 0.00 in0.0 mm 0.01 in0.3 mm
07:30 AM 53.4°F11.9°C 38.1°F3.4°C 56% 12.0 mph NW19.3 kmh NW 19.0 mph30.6 kmh 29.69 in1005.4 mb 0.00 in0.0 mm 0.00 in0.0 mm 0.01 in0.3 mm
07:00 AM 53.2°F11.8°C 38.5°F3.6°C 57% 13.0 mph WNW20.9 kmh WNW 24.0 mph38.6 kmh 29.67 in1004.7 mb 0.00 in0.0 mm 0.00 in0.0 mm 0.01 in0.3 mm
06:30 AM 53.4°F11.9°C 38.7°F3.7°C 57% 12.0 mph WNW19.3 kmh WNW 20.0 mph32.2 kmh 29.66 in1004.4 mb 0.00 in0.0 mm 0.00 in0.0 mm 0.01 in0.3 mm
06:00 AM 54.1°F12.3°C 38.3°F3.5°C 55% 12.0 mph WNW19.3 kmh WNW 24.0 mph38.6 kmh 29.64 in1003.7 mb 0.00 in0.0 mm 0.00 in0.0 mm 0.01 in0.3 mm
05:30 AM 54.3°F12.4°C 38.1°F3.4°C 54% 11.0 mph NW17.7 kmh NW 19.0 mph30.6 kmh 29.62 in1003.0 mb 0.00 in0.0 mm 0.00 in0.0 mm 0.01 in0.3 mm
05:00 AM 54.5°F12.5°C 38.1°F3.4°C 54% 10.0 mph NW16.1 kmh NW 17.0 mph27.4 kmh 29.61 in1002.7 mb 0.01 in0.3 mm 0.00 in0.0 mm 0.01 in0.3 mm
04:30 AM 54.3°F12.4°C 38.5°F3.6°C 55% 10.0 mph NW16.1 kmh NW 18.0 mph29.0 kmh 29.60 in1002.4 mb 0.01 in0.3 mm 0.02 in0.5 mm 0.01 in0.3 mm
04:00 AM 53.1°F11.7°C 40.8°F4.9°C 63% 8.0 mph NW12.9 kmh NW 15.0 mph24.1 kmh 29.60 in1002.4 mb 0.00 in0.0 mm 0.00 in0.0 mm 0.00 in0.0 mm
03:30 AM 52.2°F11.2°C 44.4°F6.9°C 75% 1.0 mph NNW1.6 kmh NNW 8.0 mph12.9 kmh 29.60 in1002.4 mb 0.00 in0.0 mm 0.00 in0.0 mm 0.00 in0.0 mm
03:00 AM 50.7°F10.4°C 45.9°F7.7°C 83% 7.0 mph NW11.3 kmh NW 11.0 mph17.7 kmh 29.59 in1002.0 mb 0.00 in0.0 mm 0.00 in0.0 mm 0.00 in0.0 mm
02:30 AM 50.7°F10.4°C 46.6°F8.1°C 86% Calm Calm -- 29.59 in1002.0 mb 0.00 in0.0 mm 0.00 in0.0 mm 0.00 in0.0 mm
02:00 AM 52.2°F11.2°C 48.4°F9.1°C 87% Calm Calm -- 29.59 in1002.0 mb 0.00 in0.0 mm 0.00 in0.0 mm 0.00 in0.0 mm
01:30 AM 53.2°F11.8°C 49.3°F9.6°C 86% Calm Calm -- 29.60 in1002.4 mb 0.00 in0.0 mm 0.00 in0.0 mm 0.00 in0.0 mm
01:00 AM 54.3°F12.4°C 50.0°F10.0°C 85% Calm Calm -- 29.59 in1002.0 mb 0.00 in0.0 mm 0.00 in0.0 mm 0.00 in0.0 mm
12:30 AM 54.7°F12.6°C 50.9°F10.5°C 87% 2.0 mph NW3.2 kmh NW 9.0 mph14.5 kmh 29.58 in1001.7 mb 0.00 in0.0 mm 0.00 in0.0 mm 0.00 in0.0 mm
12:00 AM 54.3°F12.4°C 50.4°F10.2°C 86% Calm Calm -- 29.58 in1001.7 mb 0.00 in0.0 mm 0.00 in0.0 mm 0.00 in0.0 mm